Time;durP1;ratioP1;P1;durP2;ratioP2;P2;SDS_P1;SDS_P2;PMS_P1;PMS_P2;Temp;Humidity;BMP_temperature;BMP_pressure;BME280_temperature;BME280_humidity;BME280_pressure;Samples;Min_cycle;Max_cycle;Signal;HPM_P1;HPM_P2
2021/12/21 00:02:07;;;;;;;6.65;4.65;;;;;;;20.46;27.79;99747.78;5109635;28;20044;-56
2021/12/21 00:04:33;;;;;;;7.18;5.28;;;;;;;20.50;27.87;99745.06;5109779;28;20040;-56
2021/12/21 00:06:58;;;;;;;6.70;5.18;;;;;;;20.49;27.70;99740.69;5109770;28;20043;-56
2021/12/21 00:09:24;;;;;;;6.57;5.10;;;;;;;20.49;27.76;99743.47;5109761;28;20054;-57
2021/12/21 00:11:50;;;;;;;6.65;4.93;;;;;;;20.47;27.73;99735.50;5109458;28;20035;-57
2021/12/21 00:20:07;;;;;;;7.47;4.85;;;;;;;20.47;27.99;99734.69;4994928;28;20046;-57
2021/12/21 00:25:18;;;;;;;6.03;4.43;;;;;;;20.46;27.96;99728.34;4989282;28;20432;-56
2021/12/21 00:27:46;;;;;;;6.03;4.72;;;;;;;20.46;27.74;99733.91;4987394;28;20518;-56
2021/12/21 00:30:11;;;;;;;6.53;4.50;;;;;;;20.46;27.86;99728.34;4987326;28;20173;-56
2021/12/21 00:32:37;;;;;;;6.45;4.72;;;;;;;20.47;27.77;99735.50;4987135;28;20129;-56
2021/12/21 00:35:03;;;;;;;6.47;4.68;;;;;;;20.47;27.77;99724.38;4987362;28;20038;-56
2021/12/21 00:37:29;;;;;;;5.93;4.20;;;;;;;20.46;27.75;99728.34;4987494;28;20472;-57
2021/12/21 00:39:55;;;;;;;6.90;4.60;;;;;;;20.46;27.82;99730.31;4987265;28;20522;-56
2021/12/21 00:42:21;;;;;;;6.32;4.75;;;;;;;20.47;27.90;99729.16;4987314;28;20046;-69
2021/12/21 00:44:46;;;;;;;5.50;4.03;;;;;;;20.46;27.93;99721.97;4987063;28;20054;-56
2021/12/21 00:47:14;;;;;;;6.50;4.60;;;;;;;20.47;27.74;99726.38;4987220;28;20292;-56
2021/12/21 00:49:44;;;;;;;5.80;4.38;;;;;;;20.44;27.62;99719.56;4986826;28;20057;-56
2021/12/21 00:52:10;;;;;;;6.03;4.40;;;;;;;20.44;27.80;99719.56;4988403;28;20090;-56
2021/12/21 00:54:35;;;;;;;5.82;4.30;;;;;;;20.45;27.70;99725.94;4990214;28;20238;-56
2021/12/21 00:57:04;;;;;;;6.22;4.03;;;;;;;20.47;27.80;99731.91;5061544;28;20043;-57
2021/12/21 00:59:32;;;;;;;5.95;4.35;;;;;;;20.46;27.73;99722.78;5112768;28;20408;-56
2021/12/21 01:01:58;;;;;;;6.30;4.53;;;;;;;20.44;27.64;99716.78;5112752;28;20047;-56
2021/12/21 01:04:31;;;;;;;5.05;3.83;;;;;;;20.47;27.66;99723.59;5112934;28;20035;-69
2021/12/21 01:12:37;;;;;;;7.03;4.60;;;;;;;20.44;27.59;99724.28;5112213;28;20138;-69
2021/12/21 01:15:17;;;;;;;6.05;4.15;;;;;;;20.45;27.66;99714.81;5112291;28;20050;-69
2021/12/21 01:18:01;;;;;;;6.30;4.38;;;;;;;20.47;27.54;99718.84;5112077;28;20530;-69
2021/12/21 01:25:53;;;;;;;6.45;4.75;;;;;;;20.46;27.61;99716.41;5112137;28;20077;-69
2021/12/21 01:30:57;;;;;;;6.35;4.55;;;;;;;20.46;27.65;99719.19;5111877;28;20063;-70
2021/12/21 01:36:18;;;;;;;6.30;4.40;;;;;;;20.47;27.66;99723.59;5111832;28;20086;-69
2021/12/21 01:39:11;;;;;;;5.90;4.38;;;;;;;20.45;27.46;99723.16;5109144;28;20508;-68
2021/12/21 01:41:42;;;;;;;6.82;4.85;;;;;;;20.47;27.47;99729.16;5109607;28;20039;-69
2021/12/21 01:44:24;;;;;;;6.10;4.60;;;;;;;20.46;27.47;99725.56;5111880;28;20055;-69
2021/12/21 01:49:39;;;;;;;6.18;4.28;;;;;;;20.45;27.55;99725.94;5112018;28;20084;-67
2021/12/21 01:52:07;;;;;;;5.63;4.10;;;;;;;20.45;27.54;99737.06;5111761;28;20062;-69
2021/12/21 01:54:33;;;;;;;6.13;4.50;;;;;;;20.42;27.57;99732.97;5111599;28;20039;-69
2021/12/21 01:56:59;;;;;;;5.80;3.97;;;;;;;20.44;27.55;99736.25;5111788;28;20094;-69
2021/12/21 01:59:24;;;;;;;5.47;3.88;;;;;;;20.43;27.45;99726.28;5111572;28;20122;-69
2021/12/21 02:01:50;;;;;;;6.65;4.13;;;;;;;20.43;27.49;99731.84;5111539;28;20617;-69
2021/12/21 02:04:17;;;;;;;5.97;4.20;;;;;;;20.43;27.22;99734.59;5111016;28;20032;-69
2021/12/21 02:06:43;;;;;;;5.50;4.15;;;;;;;20.45;27.55;99725.94;5111530;28;20123;-69
2021/12/21 02:09:09;;;;;;;5.20;3.80;;;;;;;20.43;27.61;99720.72;5111655;28;20042;-69
2021/12/21 02:11:35;;;;;;;5.50;4.40;;;;;;;20.42;27.34;99721.06;5111166;28;20057;-69
2021/12/21 02:14:01;;;;;;;6.38;4.30;;;;;;;20.44;27.48;99727.06;5092900;28;20050;-70
2021/12/21 02:16:37;;;;;;;6.70;4.38;;;;;;;20.42;27.44;99732.97;5111188;28;20093;-70
2021/12/21 02:19:18;;;;;;;5.28;4.00;;;;;;;20.44;27.37;99733.47;5111272;28;20123;-70
2021/12/21 02:21:51;;;;;;;5.90;4.25;;;;;;;20.42;27.47;99730.19;5111138;28;20043;-70
2021/12/21 02:24:21;;;;;;;5.00;3.85;;;;;;;20.44;27.32;99727.06;5111326;28;20412;-70
2021/12/21 02:27:05;;;;;;;5.50;3.85;;;;;;;20.44;27.32;99735.41;5111096;28;20096;-57
2021/12/21 02:29:33;;;;;;;5.45;3.95;;;;;;;20.44;27.27;99729.84;5111016;28;20052;-57
2021/12/21 02:31:59;;;;;;;5.35;3.80;;;;;;;20.44;27.36;99724.28;5111349;28;20031;-57
2021/12/21 02:34:25;;;;;;;5.53;4.18;;;;;;;20.43;27.38;99722.66;5111224;28;20040;-58
2021/12/21 02:36:54;;;;;;;5.90;4.25;;;;;;;20.43;27.36;99728.22;5110955;28;20048;-58
2021/12/21 02:39:21;;;;;;;5.72;4.15;;;;;;;20.44;27.30;99729.84;5110976;28;20047;-55
2021/12/21 02:41:47;;;;;;;5.93;4.20;;;;;;;20.44;27.40;99725.13;5111045;28;20051;-55
2021/12/21 02:44:12;;;;;;;5.03;3.88;;;;;;;20.45;27.29;99731.50;5111019;28;20517;-56
2021/12/21 02:46:39;;;;;;;5.40;4.00;;;;;;;20.43;27.27;99717.94;5110913;28;20043;-55
2021/12/21 02:49:06;;;;;;;5.60;4.13;;;;;;;20.46;27.32;99717.22;5110855;28;20032;-55
2021/12/21 02:51:32;;;;;;;5.30;3.97;;;;;;;20.44;27.27;99716.78;5110838;28;20446;-69
2021/12/21 02:53:57;;;;;;;5.68;3.92;;;;;;;20.45;27.26;99717.59;5110865;28;20054;-69
2021/12/21 02:56:23;;;;;;;6.30;4.30;;;;;;;20.46;27.29;99710.88;5110595;28;20039;-69
2021/12/21 02:58:49;;;;;;;5.72;4.13;;;;;;;20.46;27.28;99711.66;5110677;28;20055;-72
2021/12/21 03:01:14;;;;;;;5.75;3.95;;;;;;;20.44;27.39;99707.63;5110473;28;20533;-68
2021/12/21 03:03:40;;;;;;;5.07;3.92;;;;;;;20.45;27.17;99710.06;5110613;28;20407;-69
2021/12/21 03:06:11;;;;;;;5.95;4.43;;;;;;;20.45;27.33;99712.84;5110439;28;20039;-69
2021/12/21 03:08:48;;;;;;;5.70;4.00;;;;;;;20.43;27.22;99715.16;5110439;28;20061;-68
2021/12/21 03:11:20;;;;;;;5.50;4.20;;;;;;;20.43;27.38;99717.94;5110140;28;20529;-67
2021/12/21 03:14:04;;;;;;;5.53;4.00;;;;;;;20.45;27.13;99712.03;5110500;28;20040;-69
2021/12/21 03:16:32;;;;;;;5.90;4.18;;;;;;;20.44;27.32;99714.00;5109234;28;20125;-69
2021/12/21 03:18:59;;;;;;;5.65;4.30;;;;;;;20.43;27.30;99706.00;5110374;28;20043;-68
2021/12/21 03:21:25;;;;;;;5.28;3.90;;;;;;;20.43;27.38;99700.44;5110165;28;20040;-69
2021/12/21 03:23:50;;;;;;;5.85;4.25;;;;;;;20.45;27.32;99704.50;5110147;28;20135;-69
2021/12/21 03:26:16;;;;;;;5.50;4.00;;;;;;;20.45;27.19;99698.94;5110221;28;20119;-69
2021/12/21 03:28:42;;;;;;;5.75;3.83;;;;;;;20.44;27.33;99694.56;5110246;28;20039;-69
2021/12/21 03:31:07;;;;;;;5.03;3.72;;;;;;;20.45;27.22;99693.41;5110056;28;20079;-69
2021/12/21 03:33:33;;;;;;;5.55;4.00;;;;;;;20.45;27.38;99696.16;5110173;28;20039;-69
2021/12/21 03:36:01;;;;;;;5.13;3.70;;;;;;;20.44;27.31;99694.56;5109906;28;20058;-69
2021/12/21 03:38:27;;;;;;;5.25;3.95;;;;;;;20.44;27.10;99689.00;5110147;28;20138;-68
2021/12/21 03:40:54;;;;;;;6.20;4.15;;;;;;;20.45;27.08;99687.03;5110224;28;20123;-70
2021/12/21 03:43:20;;;;;;;5.55;4.10;;;;;;;20.44;27.22;99675.13;5102024;28;20040;-69
2021/12/21 03:45:55;;;;;;;5.25;3.75;;;;;;;20.48;27.31;99692.66;5089790;28;20036;-70
2021/12/21 03:48:20;;;;;;;5.57;4.00;;;;;;;20.46;27.19;99689.44;5089479;28;20550;-57
2021/12/21 03:50:46;;;;;;;5.68;4.28;;;;;;;20.47;27.20;99684.69;5089601;28;20048;-57
2021/12/21 03:53:11;;;;;;;5.22;3.78;;;;;;;20.47;26.99;99679.13;5089790;28;20040;-57
2021/12/21 03:55:37;;;;;;;5.32;3.80;;;;;;;20.45;27.02;99675.91;5089577;28;20055;-57
2021/12/21 03:58:03;;;;;;;5.80;4.20;;;;;;;20.44;27.23;99677.91;5089453;28;20052;-57
2021/12/21 04:00:28;;;;;;;5.38;4.10;;;;;;;20.44;27.18;99679.84;5089514;28;20535;-57
2021/12/21 04:02:54;;;;;;;4.60;3.53;;;;;;;20.45;27.13;99673.13;5089282;28;20583;-57
2021/12/21 04:05:20;;;;;;;5.35;3.90;;;;;;;20.43;27.16;99678.22;5089479;28;20515;-57
2021/12/21 04:07:45;;;;;;;4.80;3.47;;;;;;;20.43;27.08;99667.09;5089178;28;20180;-58
2021/12/21 04:10:11;;;;;;;5.40;3.70;;;;;;;20.42;27.21;99679.38;5089235;28;20051;-57
2021/12/21 04:12:36;;;;;;;5.25;3.88;;;;;;;20.42;27.14;99671.03;5089188;28;20048;-57
2021/12/21 04:15:03;;;;;;;5.15;3.80;;;;;;;20.42;27.23;99671.03;5098499;28;20453;-57
2021/12/21 04:17:31;;;;;;;5.95;4.30;;;;;;;20.42;27.13;99673.81;5109534;28;20051;-57
2021/12/21 04:19:56;;;;;;;5.15;3.83;;;;;;;20.42;26.99;99676.59;5109782;28;20054;-57
2021/12/21 04:22:22;;;;;;;5.63;4.13;;;;;;;20.42;27.19;99676.59;5109397;28;20048;-57
2021/12/21 04:24:48;;;;;;;4.75;3.60;;;;;;;20.42;27.14;99682.97;5109564;28;20044;-57
2021/12/21 04:27:14;;;;;;;6.50;4.25;;;;;;;20.41;27.33;99677.78;5110002;28;20043;-57
2021/12/21 04:29:40;;;;;;;5.63;3.95;;;;;;;20.40;27.15;99667.84;5112058;28;20075;-57
2021/12/21 04:32:06;;;;;;;5.57;3.78;;;;;;;20.41;27.31;99677.78;5112861;28;20119;-57
2021/12/21 04:34:31;;;;;;;5.32;3.97;;;;;;;20.41;27.25;99683.34;5113040;28;20040;-57
2021/12/21 04:36:57;;;;;;;4.63;3.60;;;;;;;20.42;27.25;99680.19;5112933;28;20047;-57
2021/12/21 04:39:37;;;;;;;5.38;3.78;;;;;;;20.41;27.28;99683.34;5112993;28;20388;-57
2021/12/21 04:42:02;;;;;;;5.03;3.65;;;;;;;20.41;27.13;99684.13;5112873;28;20051;-57
2021/12/21 04:44:28;;;;;;;5.65;4.15;;;;;;;20.41;27.12;99683.34;5112766;28;20050;-57
2021/12/21 04:46:53;;;;;;;5.60;3.83;;;;;;;20.42;27.13;99674.63;5112885;28;20407;-57
2021/12/21 04:49:19;;;;;;;5.05;3.90;;;;;;;20.43;27.19;99687.38;5112814;28;20355;-69
2021/12/21 04:51:44;;;;;;;4.63;3.58;;;;;;;20.43;27.16;99678.22;5112799;28;20048;-69
2021/12/21 04:54:09;;;;;;;4.75;3.40;;;;;;;20.43;27.08;99686.53;5112819;28;20036;-69
2021/12/21 04:56:35;;;;;;;5.55;3.90;;;;;;;20.42;27.12;99676.59;5112910;28;20142;-69
2021/12/21 04:59:00;;;;;;;5.53;3.88;;;;;;;20.43;27.22;99684.59;5113262;28;20044;-69
2021/12/21 05:01:26;;;;;;;5.00;3.83;;;;;;;20.44;27.27;99689.00;5113182;28;20460;-69
2021/12/21 05:03:51;;;;;;;4.32;3.22;;;;;;;20.43;27.07;99681.00;5116281;28;20048;-69
2021/12/21 05:06:19;;;;;;;5.40;4.13;;;;;;;20.43;27.05;99692.94;5119116;28;20075;-69
2021/12/21 05:08:52;;;;;;;5.28;3.67;;;;;;;20.44;27.18;99688.19;5118780;28;20056;-69
2021/12/21 05:11:19;;;;;;;5.28;4.05;;;;;;;20.43;27.07;99684.59;5114488;28;20067;-69
2021/12/21 05:13:44;;;;;;;4.47;3.38;;;;;;;20.43;27.20;99689.31;5112370;28;20071;-70
2021/12/21 05:16:09;;;;;;;5.47;4.07;;;;;;;20.43;27.04;99683.75;5112313;28;20083;-70
2021/12/21 05:18:35;;;;;;;4.65;3.40;;;;;;;20.43;27.15;99686.53;5112520;28;20065;-69
2021/12/21 05:21:01;;;;;;;5.00;3.65;;;;;;;20.43;27.07;99689.31;5112347;28;20048;-70
2021/12/21 05:23:26;;;;;;;4.80;3.60;;;;;;;20.42;27.16;99682.97;5112060;28;20047;-69
2021/12/21 05:25:51;;;;;;;5.55;3.92;;;;;;;20.42;26.99;99691.31;5112341;28;20381;-70
2021/12/21 05:28:17;;;;;;;5.60;4.07;;;;;;;20.42;27.03;99684.94;5112064;28;20044;-70
2021/12/21 05:30:43;;;;;;;6.10;4.32;;;;;;;20.42;26.96;99687.72;5112135;28;20039;-57
2021/12/21 05:33:10;;;;;;;5.50;3.88;;;;;;;20.42;26.89;99690.50;5117677;28;20053;-57
2021/12/21 05:35:36;;;;;;;5.13;3.60;;;;;;;20.42;26.98;99694.06;5132683;27;20407;-57
2021/12/21 05:38:05;;;;;;;4.82;3.90;;;;;;;20.42;27.07;99682.97;5131921;27;20525;-57
2021/12/21 05:40:41;;;;;;;4.70;3.63;;;;;;;20.42;26.88;99682.16;5132231;27;20043;-58
2021/12/21 05:43:09;;;;;;;4.75;3.42;;;;;;;20.42;26.95;99682.97;5132382;27;20051;-56
2021/12/21 05:45:35;;;;;;;5.82;4.00;;;;;;;20.42;26.98;99679.38;5132597;27;20392;-57
2021/12/21 05:48:00;;;;;;;5.13;3.83;;;;;;;20.43;26.93;99678.22;5132870;27;20039;-56
2021/12/21 05:50:26;;;;;;;5.38;3.78;;;;;;;20.43;26.92;99684.59;5132522;27;20043;-56
2021/12/21 05:52:51;;;;;;;5.53;4.10;;;;;;;20.41;26.91;99688.88;5132464;27;20035;-57
2021/12/21 05:55:19;;;;;;;6.32;3.90;;;;;;;20.43;26.99;99683.75;5132469;27;20039;-56
2021/12/21 05:57:44;;;;;;;5.57;4.10;;;;;;;20.44;26.90;99690.97;5132162;27;20430;-56
2021/12/21 06:00:16;;;;;;;5.35;3.70;;;;;;;20.43;27.01;99687.38;5132251;27;20514;-57
2021/12/21 06:02:42;;;;;;;5.40;3.78;;;;;;;20.45;26.88;99689.81;5132283;27;20043;-57
2021/12/21 06:05:08;;;;;;;5.07;3.70;;;;;;;20.44;26.87;99691.78;5132376;27;20039;-57
2021/12/21 06:07:34;;;;;;;5.75;3.78;;;;;;;20.47;26.89;99695.81;5132133;27;20065;-57
2021/12/21 06:10:09;;;;;;;4.97;3.58;;;;;;;20.44;27.01;99689.00;5132056;27;20407;-57
2021/12/21 06:15:27;;;;;;;5.20;3.63;;;;;;;20.46;26.66;99695.00;5131953;27;20043;-55
2021/12/21 06:26:02;;;;;;;6.35;3.95;;;;;;;20.53;26.79;99691.56;5131797;27;20040;-57
2021/12/21 06:28:28;;;;;;;6.53;3.75;;;;;;;20.52;26.92;99698.28;5131785;27;20104;-57
2021/12/21 06:30:54;;;;;;;5.00;3.50;;;;;;;20.52;26.83;99699.09;5131668;27;20035;-57
2021/12/21 06:33:20;;;;;;;5.38;3.50;;;;;;;20.51;26.86;99688.34;5131645;27;20476;-57
2021/12/21 06:35:46;;;;;;;6.78;3.88;;;;;;;20.54;26.73;99704.28;5131420;27;20035;-57
2021/12/21 06:38:11;;;;;;;6.95;3.50;;;;;;;20.55;26.74;99705.88;5131500;28;20043;-57
2021/12/21 06:40:38;;;;;;;7.53;3.55;;;;;;;20.54;26.92;99702.31;5131580;27;20054;-57
2021/12/21 06:43:04;;;;;;;4.90;3.40;;;;;;;20.53;26.90;99697.13;5131733;27;20040;-57
2021/12/21 06:53:31;;;;;;;5.28;3.65;;;;;;;20.54;26.57;99707.06;5131560;27;20441;-57
2021/12/21 06:55:57;;;;;;;6.28;3.90;;;;;;;20.56;26.97;99699.16;5131514;27;20051;-56
2021/12/21 06:58:22;;;;;;;5.35;3.72;;;;;;;20.54;26.80;99704.28;5131654;27;20039;-57
2021/12/21 07:00:49;;;;;;;4.88;3.47;;;;;;;20.56;26.58;99707.50;5131432;27;20096;-56
2021/12/21 07:03:18;;;;;;;8.02;3.45;;;;;;;20.56;26.54;99704.72;5131134;27;20082;-56
2021/12/21 07:05:45;;;;;;;4.60;3.35;;;;;;;20.55;26.64;99703.09;5131090;27;20039;-56
2021/12/21 07:08:14;;;;;;;5.78;3.80;;;;;;;20.54;26.54;99702.31;5130920;27;20444;-56
2021/12/21 07:10:41;;;;;;;8.40;3.92;;;;;;;20.55;26.70;99700.31;5130837;27;20054;-56
2021/12/21 07:18:40;;;;;;;4.30;3.25;;;;;;;20.52;26.74;99709.41;5087685;28;20079;-69
2021/12/21 07:21:05;;;;;;;4.65;3.35;;;;;;;20.54;26.56;99713.41;5087637;28;20109;-70
2021/12/21 07:23:31;;;;;;;6.05;3.92;;;;;;;20.55;26.75;99714.22;5086532;28;20078;-71
2021/12/21 07:25:56;;;;;;;4.80;3.60;;;;;;;20.54;26.54;99718.19;5087085;28;20127;-68
2021/12/21 07:28:22;;;;;;;5.45;3.67;;;;;;;20.56;26.52;99721.38;5085155;28;20118;-70
2021/12/21 07:30:48;;;;;;;5.30;3.80;;;;;;;20.56;26.59;99715.81;5086429;28;20483;-70
2021/12/21 07:33:15;;;;;;;5.10;3.55;;;;;;;20.56;26.54;99713.84;5067875;28;20060;-56
2021/12/21 07:35:40;;;;;;;5.45;3.78;;;;;;;20.57;26.67;99714.66;5066695;28;20569;-56
2021/12/21 07:38:06;;;;;;;4.70;3.58;;;;;;;20.58;26.74;99713.50;5083691;28;20052;-57
2021/12/21 07:40:31;;;;;;;5.70;3.80;;;;;;;20.59;26.72;99726.22;5087083;28;20082;-57
2021/12/21 07:42:58;;;;;;;5.13;3.83;;;;;;;20.58;26.71;99717.09;5079671;28;20334;-57
2021/12/21 07:45:23;;;;;;;5.15;3.63;;;;;;;20.58;26.60;99725.44;5086886;28;20445;-56
2021/12/21 07:47:49;;;;;;;5.72;3.47;;;;;;;20.60;26.60;99722.28;5086502;28;20044;-58
2021/12/21 07:50:15;;;;;;;13.05;3.97;;;;;;;20.72;26.51;99716.56;5084245;28;20036;-58
2021/12/21 07:52:40;;;;;;;6.95;4.82;;;;;;;20.84;26.13;99723.94;5086831;28;20096;-58
2021/12/21 07:55:06;;;;;;;6.22;4.40;;;;;;;20.95;26.11;99724.97;5097163;28;20080;-57
2021/12/21 07:57:32;;;;;;;10.00;5.00;;;;;;;21.00;26.05;99724.63;5119413;28;20043;-57
2021/12/21 07:59:58;;;;;;;9.48;4.30;;;;;;;21.08;25.76;99736.72;5125728;27;20035;-68
2021/12/21 08:02:26;;;;;;;46.28;5.90;;;;;;;21.09;25.62;99732.78;5121987;28;20092;-68
2021/12/21 08:04:52;;;;;;;37.97;4.80;;;;;;;21.04;26.16;99736.66;5124475;28;20087;-70
2021/12/21 08:07:22;;;;;;;30.23;4.95;;;;;;;21.03;25.94;99737.03;5116764;28;20044;-67
2021/12/21 08:09:52;;;;;;;30.23;4.70;;;;;;;21.01;26.03;99742.97;5109231;28;20043;-68
2021/12/21 08:12:18;;;;;;;24.30;4.97;;;;;;;21.01;26.05;99739.38;5117184;28;20042;-69
2021/12/21 08:14:48;;;;;;;25.20;4.80;;;;;;;20.95;26.08;99738.06;5123920;27;20050;-69
2021/12/21 08:17:14;;;;;;;18.10;4.63;;;;;;;20.89;26.34;99741.13;5123575;27;20043;-73
2021/12/21 08:19:39;;;;;;;18.50;4.10;;;;;;;20.73;27.66;99736.84;5118949;27;20054;-70
2021/12/21 08:22:05;;;;;;;18.90;5.40;;;;;;;20.68;27.72;99728.78;5128794;28;20044;-73
2021/12/21 08:24:31;;;;;;;16.25;4.60;;;;;;;20.73;27.46;99737.63;5124035;27;20058;-68
2021/12/21 08:26:59;;;;;;;15.63;4.80;;;;;;;20.81;27.78;99744.94;5127705;27;21130;-66
2021/12/21 08:29:25;;;;;;;16.73;5.32;;;;;;;20.82;27.33;99746.56;5125990;27;20047;-66
2021/12/21 08:31:50;;;;;;;15.25;4.95;;;;;;;20.81;27.24;99752.47;5125797;27;20043;-68
2021/12/21 08:34:16;;;;;;;16.05;4.93;;;;;;;20.84;27.19;99760.09;5128827;27;20040;-69
2021/12/21 08:36:41;;;;;;;29.02;5.60;;;;;;;20.83;26.95;99748.16;5129150;27;20137;-69
2021/12/21 08:39:07;;;;;;;18.58;4.82;;;;;;;20.84;26.92;99758.09;5125274;28;20188;-69
2021/12/21 08:41:39;;;;;;;15.63;5.10;;;;;;;20.81;26.69;99758.84;5126708;27;20039;-69
2021/12/21 08:44:04;;;;;;;14.45;4.55;;;;;;;20.77;26.67;99752.41;5116734;27;20498;-58
2021/12/21 08:46:30;;;;;;;8.85;4.20;;;;;;;20.84;27.08;99752.53;5121920;27;20515;-58
2021/12/21 08:48:55;;;;;;;18.33;4.80;;;;;;;20.88;26.99;99760.97;5122396;27;20058;-60
2021/12/21 08:51:20;;;;;;;13.43;4.53;;;;;;;20.89;27.06;99757.81;5126292;28;20047;-59
2021/12/21 08:53:46;;;;;;;15.80;4.18;;;;;;;20.94;27.09;99761.47;5124762;27;20043;-59
2021/12/21 08:56:12;;;;;;;15.50;4.38;;;;;;;20.96;27.11;99771.06;5125714;27;20119;-59
2021/12/21 08:58:37;;;;;;;7.78;3.85;;;;;;;20.94;27.42;99753.16;5125386;28;20180;-58
2021/12/21 09:01:03;;;;;;;8.40;4.25;;;;;;;20.94;27.44;99756.72;5125174;27;20035;-60
2021/12/21 09:03:29;;;;;;;12.20;4.30;;;;;;;20.96;27.31;99773.03;5125509;27;20040;-61
2021/12/21 09:05:54;;;;;;;9.15;4.22;;;;;;;20.96;27.60;99767.47;5122549;27;20070;-62
2021/12/21 09:08:20;;;;;;;5.70;4.03;;;;;;;21.00;27.70;99768.34;5118833;27;20435;-59
2021/12/21 09:10:45;;;;;;;9.00;4.18;;;;;;;21.05;27.77;99754.94;5126783;28;20116;-59
2021/12/21 09:13:11;;;;;;;7.18;4.22;;;;;;;21.13;27.88;99750.31;5127062;27;20110;-69
2021/12/21 09:15:37;;;;;;;5.95;3.83;;;;;;;21.23;27.60;99762.84;5123819;27;20058;-63
2021/12/21 09:18:04;;;;;;;7.05;4.15;;;;;;;21.27;27.36;99760.91;5114662;28;20055;-64
2021/12/21 09:20:31;;;;;;;7.57;4.28;;;;;;;21.29;27.44;99751.06;5109481;28;20046;-63
2021/12/21 09:22:58;;;;;;;7.75;4.30;;;;;;;21.34;27.26;99766.63;5126413;28;20533;-61
2021/12/21 09:25:25;;;;;;;6.05;3.92;;;;;;;21.35;27.22;99768.22;5129745;27;20035;-62
2021/12/21 09:27:52;;;;;;;5.80;3.80;;;;;;;21.39;27.40;99775.47;5129456;27;20046;-62
2021/12/21 09:30:19;;;;;;;9.07;4.13;;;;;;;21.41;27.19;99775.91;5127562;27;20039;-63
2021/12/21 09:32:46;;;;;;;8.70;3.85;;;;;;;21.43;27.23;99781.09;5124907;28;20039;-61
2021/12/21 09:35:12;;;;;;;7.03;4.03;;;;;;;21.45;26.84;99792.69;5126910;28;20126;-61
2021/12/21 09:37:38;;;;;;;7.55;3.72;;;;;;;21.47;26.86;99789.53;5129123;28;20517;-59
2021/12/21 09:40:07;;;;;;;9.80;3.70;;;;;;;21.46;26.96;99785.13;5125634;27;20082;-59
2021/12/21 09:42:34;;;;;;;5.45;3.90;;;;;;;21.47;27.02;99789.53;5123108;28;20042;-59
2021/12/21 09:44:59;;;;;;;5.05;3.47;;;;;;;21.46;27.14;99785.94;5129650;27;20130;-61
2021/12/21 09:47:26;;;;;;;6.70;4.13;;;;;;;21.38;27.38;99787.78;5129574;28;20503;-61
2021/12/21 09:49:52;;;;;;;7.00;3.78;;;;;;;21.33;27.54;99787.28;5130842;27;20463;-60
2021/12/21 09:52:23;;;;;;;6.47;3.70;;;;;;;21.27;27.82;99795.09;5128575;27;20080;-60
2021/12/21 09:54:50;;;;;;;7.60;3.83;;;;;;;21.21;27.85;99792.97;5127756;28;20126;-60
2021/12/21 09:57:17;;;;;;;6.40;4.00;;;;;;;21.15;27.88;99793.28;5121735;28;20551;-60
2021/12/21 09:59:47;;;;;;;6.53;4.30;;;;;;;21.11;28.08;99795.19;5128778;27;20095;-61
2021/12/21 10:02:13;;;;;;;6.22;3.95;;;;;;;21.05;27.84;99793.88;5121323;28;20487;-62
2021/12/21 10:04:50;;;;;;;6.50;4.43;;;;;;;21.04;27.79;99791.47;5129612;28;20086;-60
2021/12/21 10:07:18;;;;;;;25.35;14.07;;;;;;;21.05;28.12;99788.31;5122857;28;20058;-60
2021/12/21 10:09:46;;;;;;;289.30;146.90;;;;;;;21.06;27.72;99786.34;5125270;28;20491;-62
2021/12/21 10:12:28;;;;;;;537.83;349.98;;;;;;;21.05;27.79;99787.50;5124643;28;20043;-64
2021/12/21 10:15:12;;;;;;;438.08;270.10;;;;;;;21.00;27.67;99780.25;5129185;28;20513;-63
2021/12/21 10:17:54;;;;;;;317.05;176.68;;;;;;;21.00;27.64;99790.59;5124570;28;20046;-64
2021/12/21 10:20:43;;;;;;;223.57;114.78;;;;;;;20.97;27.73;99794.09;5127293;27;20043;-62
2021/12/21 10:23:19;;;;;;;111.25;61.28;;;;;;;20.94;26.38;99803.19;5124973;28;20645;-57
2021/12/21 10:25:55;;;;;;;58.78;34.70;;;;;;;20.93;25.64;99807.94;5126968;27;20395;-63
2021/12/21 10:28:32;;;;;;;31.48;20.73;;;;;;;20.85;24.82;99806.97;5127363;27;20047;-61
2021/12/21 10:31:00;;;;;;;23.02;15.43;;;;;;;20.79;24.72;99785.41;5130418;27;20047;-67
2021/12/21 10:33:27;;;;;;;26.85;13.75;;;;;;;20.77;24.60;99805.22;5129741;28;20061;-67
2021/12/21 10:35:54;;;;;;;19.10;13.82;;;;;;;20.73;24.63;99804.34;5130163;28;20039;-70
2021/12/21 10:38:43;;;;;;;23.52;16.58;;;;;;;20.71;24.63;99801.13;5132104;27;20045;-71
2021/12/21 10:41:27;;;;;;;17.48;13.38;;;;;;;20.69;24.83;99792.34;5119659;28;20043;-74
2021/12/21 10:44:14;;;;;;;20.02;14.35;;;;;;;20.68;24.65;99785.19;5131048;27;20483;-72
2021/12/21 10:46:52;;;;;;;18.13;12.43;;;;;;;20.72;24.69;99768.59;5129412;28;20446;-69
2021/12/21 10:49:26;;;;;;;17.10;12.57;;;;;;;20.71;24.55;99766.94;5129736;28;20530;-71
2021/12/21 10:51:58;;;;;;;16.67;12.75;;;;;;;20.68;24.41;99768.50;5126409;28;20039;-68
2021/12/21 10:54:31;;;;;;;16.77;12.33;;;;;;;20.69;24.51;99764.53;5124823;28;20526;-68
2021/12/21 10:57:02;;;;;;;15.68;11.88;;;;;;;20.68;24.55;99760.16;5123436;28;20936;-69
2021/12/21 10:59:30;;;;;;;19.27;13.10;;;;;;;20.68;24.54;99759.34;5124683;28;20051;-70
2021/12/21 11:02:13;;;;;;;15.93;12.13;;;;;;;20.71;24.43;99755.84;5127529;27;20468;-58
2021/12/21 11:04:46;;;;;;;15.00;11.48;;;;;;;20.73;24.48;99751.53;5128178;28;20059;-56
2021/12/21 11:07:30;;;;;;;19.13;11.02;;;;;;;20.59;25.02;99745.69;5129360;27;20113;-54
2021/12/21 11:10:13;;;;;;;12.68;8.57;;;;;;;20.58;25.19;99741.31;5129964;27;20039;-57
2021/12/21 11:12:46;;;;;;;12.35;8.52;;;;;;;20.58;25.74;99735.75;5130578;28;20448;-70
2021/12/21 11:15:16;;;;;;;17.15;7.38;;;;;;;20.60;25.71;99734.19;5130542;27;20044;-67
2021/12/21 11:17:42;;;;;;;9.98;7.22;;;;;;;20.61;26.16;99735.81;5130409;28;20043;-66
2021/12/21 11:20:10;;;;;;;10.80;7.50;;;;;;;20.63;26.26;99732.66;5130227;27;20043;-68
2021/12/21 11:22:38;;;;;;;12.65;6.60;;;;;;;20.64;26.33;99733.44;5130271;28;20043;-64
2021/12/21 11:25:05;;;;;;;9.73;6.82;;;;;;;20.64;26.40;99728.69;5130570;27;20035;-65
2021/12/21 11:27:34;;;;;;;11.75;7.25;;;;;;;20.63;26.43;99721.53;5130381;27;20048;-63
2021/12/21 11:30:03;;;;;;;10.50;7.15;;;;;;;20.64;26.49;99716.78;5129999;27;20043;-65
2021/12/21 11:32:32;;;;;;;9.55;5.65;;;;;;;20.66;26.62;99711.69;5130399;27;20084;-68
2021/12/21 11:37:20;;;;;;;8.23;6.20;;;;;;;20.67;26.65;99711.31;5130354;27;20427;-66
2021/12/21 11:37:46;;;;;;;9.15;6.60;;;;;;;20.68;26.62;99706.53;5129173;27;20078;-66
2021/12/21 11:40:19;;;;;;;11.63;6.13;;;;;;;20.66;26.43;99706.91;5130024;27;20036;-66
2021/12/21 11:42:50;;;;;;;8.43;6.03;;;;;;;20.67;26.53;99704.94;5129911;27;20043;-65
2021/12/21 11:45:23;;;;;;;9.93;5.75;;;;;;;20.67;26.69;99694.63;5130537;28;20078;-55
2021/12/21 11:48:00;;;;;;;8.00;5.70;;;;;;;20.68;26.72;99690.69;5130222;27;20046;-55
2021/12/21 11:50:27;;;;;;;7.55;5.53;;;;;;;20.67;26.52;99688.25;5126211;28;20051;-54
2021/12/21 11:53:00;;;;;;;7.55;5.32;;;;;;;20.65;26.63;99680.31;5129902;27;20486;-55
2021/12/21 11:55:28;;;;;;;7.30;5.43;;;;;;;20.67;26.78;99672.38;5129564;27;20418;-53
2021/12/21 11:57:57;;;;;;;6.80;5.15;;;;;;;20.67;26.73;99672.38;5129446;27;20044;-54
2021/12/21 12:00:34;;;;;;;7.07;5.05;;;;;;;20.67;26.70;99677.16;5127504;27;20134;-54
2021/12/21 12:03:12;;;;;;;7.10;5.45;;;;;;;20.67;26.82;99675.16;5128975;27;20049;-54
2021/12/21 12:05:42;;;;;;;6.78;4.90;;;;;;;20.69;26.76;99672.03;5130013;28;20562;-55
2021/12/21 12:08:10;;;;;;;6.80;5.07;;;;;;;20.68;26.66;99674.00;5129769;27;20066;-55
2021/12/21 12:10:38;;;;;;;7.55;5.40;;;;;;;20.67;26.71;99669.63;5128972;27;20052;-55
2021/12/21 12:13:13;;;;;;;7.03;5.05;;;;;;;20.64;26.61;99659.22;5129356;27;20453;-54
2021/12/21 12:15:52;;;;;;;7.13;5.15;;;;;;;20.64;26.62;99664.78;5129980;27;20495;-55
2021/12/21 12:18:27;;;;;;;7.20;4.97;;;;;;;20.64;26.75;99656.44;5129716;27;20047;-55
2021/12/21 12:20:54;;;;;;;7.20;5.07;;;;;;;20.59;26.72;99652.00;5129692;28;20046;-54
2021/12/21 12:23:19;;;;;;;6.88;4.70;;;;;;;20.65;26.80;99657.25;5128778;27;20130;-54
2021/12/21 12:25:57;;;;;;;6.38;4.70;;;;;;;20.64;26.75;99664.78;5129708;27;20123;-55
2021/12/21 12:28:32;;;;;;;5.78;4.55;;;;;;;20.65;26.68;99657.25;5129453;27;20503;-54
2021/12/21 12:30:57;;;;;;;6.53;4.80;;;;;;;20.63;26.53;99649.28;5128975;28;20096;-55